Bitte eine E-Mail-Adresse für das Benutzerkonto eingeben. Ein Bestätigungscode wird dann an diese verschickt. Sobald der Code vorliegt, kann ein neues Passwort für das Benutzerkonto festgelegt werden.

 

 

 
NEU! ab. 1.4.
Nortel Info 128,740 MHz

WebCam

  
Kamera Halle
Kamera Vorplatz
Wetter EDDS

METAR

EDDS 212250Z 03008KT CAVOK M03/M06 Q1017 =


TAF

EDDS 211700Z 2118/2218 03008KT 9999 SCT025 BECMG 2208/2210 05013KT TEMPO 2212/2216 05015G25KT =


SR/SS

06:17 / 16:52 UTC
(EDSO 21-02-2018)

Austräger der GPS Triangle WM 2017